sensor_id;sensor_type;location;lat;lon;timestamp;temperature;humidity
36990;DHT22;22898;52.102;5.776;2023-06-22T00:00:51;26.80;86.00
36990;DHT22;22898;52.102;5.776;2023-06-22T00:03:22;26.90;86.00
36990;DHT22;22898;52.102;5.776;2023-06-22T00:05:48;26.90;86.20
36990;DHT22;22898;52.102;5.776;2023-06-22T00:08:14;26.80;86.10
36990;DHT22;22898;52.102;5.776;2023-06-22T00:10:41;26.90;86.00
36990;DHT22;22898;52.102;5.776;2023-06-22T00:13:07;26.80;85.90
36990;DHT22;22898;52.102;5.776;2023-06-22T00:15:33;26.80;86.10
36990;DHT22;22898;52.102;5.776;2023-06-22T00:17:59;26.80;86.30
36990;DHT22;22898;52.102;5.776;2023-06-22T00:20:26;26.70;86.50
36990;DHT22;22898;52.102;5.776;2023-06-22T00:22:59;26.70;86.70
36990;DHT22;22898;52.102;5.776;2023-06-22T00:25:25;26.70;87.50
36990;DHT22;22898;52.102;5.776;2023-06-22T00:27:51;26.60;86.40
36990;DHT22;22898;52.102;5.776;2023-06-22T00:30:17;26.40;86.40
36990;DHT22;22898;52.102;5.776;2023-06-22T00:32:44;26.50;86.50
36990;DHT22;22898;52.102;5.776;2023-06-22T00:35:10;26.40;86.60
36990;DHT22;22898;52.102;5.776;2023-06-22T00:37:36;26.40;86.90
36990;DHT22;22898;52.102;5.776;2023-06-22T00:40:02;26.30;87.00
36990;DHT22;22898;52.102;5.776;2023-06-22T00:42:30;26.40;87.10
36990;DHT22;22898;52.102;5.776;2023-06-22T00:44:55;26.30;87.30
36990;DHT22;22898;52.102;5.776;2023-06-22T00:47:21;26.30;87.20
36990;DHT22;22898;52.102;5.776;2023-06-22T00:49:48;26.20;87.10
36990;DHT22;22898;52.102;5.776;2023-06-22T00:52:17;26.20;87.00
36990;DHT22;22898;52.102;5.776;2023-06-22T00:54:50;26.10;87.00
36990;DHT22;22898;52.102;5.776;2023-06-22T00:57:17;26.10;87.20
36990;DHT22;22898;52.102;5.776;2023-06-22T00:59:44;25.90;87.70
36990;DHT22;22898;52.102;5.776;2023-06-22T01:02:10;25.80;88.60
36990;DHT22;22898;52.102;5.776;2023-06-22T01:04:38;25.70;89.00
36990;DHT22;22898;52.102;5.776;2023-06-22T01:12:42;25.80;88.20
36990;DHT22;22898;52.102;5.776;2023-06-22T01:17:53;25.70;88.80
36990;DHT22;22898;52.102;5.776;2023-06-22T01:20:20;25.60;88.80
36990;DHT22;22898;52.102;5.776;2023-06-22T01:23:26;25.50;89.10
36990;DHT22;22898;52.102;5.776;2023-06-22T01:26:18;25.40;89.30
36990;DHT22;22898;52.102;5.776;2023-06-22T01:28:50;25.40;89.40
36990;DHT22;22898;52.102;5.776;2023-06-22T01:31:19;25.30;89.70
36990;DHT22;22898;52.102;5.776;2023-06-22T01:33:49;25.30;90.00
36990;DHT22;22898;52.102;5.776;2023-06-22T01:36:16;25.30;89.90
36990;DHT22;22898;52.102;5.776;2023-06-22T01:38:43;25.40;89.60
36990;DHT22;22898;52.102;5.776;2023-06-22T01:41:10;25.40;89.50
36990;DHT22;22898;52.102;5.776;2023-06-22T01:43:36;25.30;89.40
36990;DHT22;22898;52.102;5.776;2023-06-22T01:46:03;25.30;89.40
36990;DHT22;22898;52.102;5.776;2023-06-22T01:48:29;25.30;89.10
36990;DHT22;22898;52.102;5.776;2023-06-22T01:50:55;25.20;88.70
36990;DHT22;22898;52.102;5.776;2023-06-22T01:53:24;25.20;89.10
36990;DHT22;22898;52.102;5.776;2023-06-22T01:55:50;25.20;88.90
36990;DHT22;22898;52.102;5.776;2023-06-22T01:58:16;25.30;88.50
36990;DHT22;22898;52.102;5.776;2023-06-22T02:00:48;25.20;88.40
36990;DHT22;22898;52.102;5.776;2023-06-22T02:03:22;25.20;88.50
36990;DHT22;22898;52.102;5.776;2023-06-22T02:05:51;25.10;88.80
36990;DHT22;22898;52.102;5.776;2023-06-22T02:08:28;25.10;88.90
36990;DHT22;22898;52.102;5.776;2023-06-22T02:10:55;25.00;89.10
36990;DHT22;22898;52.102;5.776;2023-06-22T02:13:24;25.00;88.70
36990;DHT22;22898;52.102;5.776;2023-06-22T02:15:50;25.10;88.50
36990;DHT22;22898;52.102;5.776;2023-06-22T02:18:16;25.20;88.30
36990;DHT22;22898;52.102;5.776;2023-06-22T02:20:42;25.10;88.60
36990;DHT22;22898;52.102;5.776;2023-06-22T02:23:08;25.10;88.80
36990;DHT22;22898;52.102;5.776;2023-06-22T02:25:34;25.10;88.60
36990;DHT22;22898;52.102;5.776;2023-06-22T02:28:00;25.00;88.50
36990;DHT22;22898;52.102;5.776;2023-06-22T02:30:25;24.90;89.20
36990;DHT22;22898;52.102;5.776;2023-06-22T02:32:51;24.90;89.30
36990;DHT22;22898;52.102;5.776;2023-06-22T02:35:29;24.90;89.20
36990;DHT22;22898;52.102;5.776;2023-06-22T02:37:59;24.90;89.30
36990;DHT22;22898;52.102;5.776;2023-06-22T02:40:26;24.80;89.30
36990;DHT22;22898;52.102;5.776;2023-06-22T02:42:52;24.70;89.40
36990;DHT22;22898;52.102;5.776;2023-06-22T02:45:17;24.70;89.70
36990;DHT22;22898;52.102;5.776;2023-06-22T02:47:43;24.60;89.80
36990;DHT22;22898;52.102;5.776;2023-06-22T02:50:09;24.60;89.50
36990;DHT22;22898;52.102;5.776;2023-06-22T02:52:35;24.50;90.00
36990;DHT22;22898;52.102;5.776;2023-06-22T02:55:01;24.50;89.80
36990;DHT22;22898;52.102;5.776;2023-06-22T02:57:26;24.50;90.00
36990;DHT22;22898;52.102;5.776;2023-06-22T02:59:52;24.50;90.00
36990;DHT22;22898;52.102;5.776;2023-06-22T03:02:17;24.50;89.90
36990;DHT22;22898;52.102;5.776;2023-06-22T03:04:46;24.50;89.90
36990;DHT22;22898;52.102;5.776;2023-06-22T03:07:15;24.50;90.00
36990;DHT22;22898;52.102;5.776;2023-06-22T03:09:42;24.40;90.00
36990;DHT22;22898;52.102;5.776;2023-06-22T03:12:08;24.40;89.80
36990;DHT22;22898;52.102;5.776;2023-06-22T03:14:34;24.40;90.00
36990;DHT22;22898;52.102;5.776;2023-06-22T03:16:59;24.40;89.70
36990;DHT22;22898;52.102;5.776;2023-06-22T03:19:29;24.30;90.10
36990;DHT22;22898;52.102;5.776;2023-06-22T03:21:59;24.30;90.20
36990;DHT22;22898;52.102;5.776;2023-06-22T03:24:25;24.30;90.00
36990;DHT22;22898;52.102;5.776;2023-06-22T03:26:53;24.40;90.00
36990;DHT22;22898;52.102;5.776;2023-06-22T03:29:20;24.50;89.30
36990;DHT22;22898;52.102;5.776;2023-06-22T03:31:45;24.30;89.40
36990;DHT22;22898;52.102;5.776;2023-06-22T03:34:11;24.40;89.10
36990;DHT22;22898;52.102;5.776;2023-06-22T03:36:36;24.30;89.20
36990;DHT22;22898;52.102;5.776;2023-06-22T03:39:02;24.30;89.30
36990;DHT22;22898;52.102;5.776;2023-06-22T03:41:27;24.30;89.10
36990;DHT22;22898;52.102;5.776;2023-06-22T03:43:53;24.30;88.90
36990;DHT22;22898;52.102;5.776;2023-06-22T03:46:19;24.40;88.30
36990;DHT22;22898;52.102;5.776;2023-06-22T03:48:45;24.50;88.10
36990;DHT22;22898;52.102;5.776;2023-06-22T03:51:10;24.30;88.70
36990;DHT22;22898;52.102;5.776;2023-06-22T03:53:36;24.30;89.00
36990;DHT22;22898;52.102;5.776;2023-06-22T03:56:02;24.30;89.30
36990;DHT22;22898;52.102;5.776;2023-06-22T03:58:27;24.30;89.40
36990;DHT22;22898;52.102;5.776;2023-06-22T04:00:58;24.30;89.50
36990;DHT22;22898;52.102;5.776;2023-06-22T04:03:25;24.30;89.80
36990;DHT22;22898;52.102;5.776;2023-06-22T04:05:50;24.40;89.60
36990;DHT22;22898;52.102;5.776;2023-06-22T04:08:16;24.30;89.80
36990;DHT22;22898;52.102;5.776;2023-06-22T04:10:42;24.30;90.00
36990;DHT22;22898;52.102;5.776;2023-06-22T04:13:08;24.30;90.00
36990;DHT22;22898;52.102;5.776;2023-06-22T04:15:33;24.40;89.60
36990;DHT22;22898;52.102;5.776;2023-06-22T04:17:59;24.40;89.70
36990;DHT22;22898;52.102;5.776;2023-06-22T04:20:25;24.40;89.70
36990;DHT22;22898;52.102;5.776;2023-06-22T04:22:53;24.40;90.00
36990;DHT22;22898;52.102;5.776;2023-06-22T04:25:19;24.30;90.20
36990;DHT22;22898;52.102;5.776;2023-06-22T04:27:46;24.50;90.10
36990;DHT22;22898;52.102;5.776;2023-06-22T04:30:12;24.50;90.00
36990;DHT22;22898;52.102;5.776;2023-06-22T04:32:41;24.50;89.70
36990;DHT22;22898;52.102;5.776;2023-06-22T04:35:07;24.60;90.00
36990;DHT22;22898;52.102;5.776;2023-06-22T04:37:33;24.60;90.20
36990;DHT22;22898;52.102;5.776;2023-06-22T04:39:59;24.60;90.40
36990;DHT22;22898;52.102;5.776;2023-06-22T04:42:28;24.50;90.60
36990;DHT22;22898;52.102;5.776;2023-06-22T04:44:53;24.70;90.80
36990;DHT22;22898;52.102;5.776;2023-06-22T04:47:19;24.70;91.00
36990;DHT22;22898;52.102;5.776;2023-06-22T04:49:45;24.80;91.10
36990;DHT22;22898;52.102;5.776;2023-06-22T04:52:12;24.90;91.20
36990;DHT22;22898;52.102;5.776;2023-06-22T04:54:39;25.10;91.00
36990;DHT22;22898;52.102;5.776;2023-06-22T04:57:07;25.20;91.00
36990;DHT22;22898;52.102;5.776;2023-06-22T04:59:36;25.40;91.10
36990;DHT22;22898;52.102;5.776;2023-06-22T05:02:04;25.50;91.10
36990;DHT22;22898;52.102;5.776;2023-06-22T05:04:31;25.50;91.10
36990;DHT22;22898;52.102;5.776;2023-06-22T05:06:57;25.60;92.00
36990;DHT22;22898;52.102;5.776;2023-06-22T05:09:24;25.80;91.70
36990;DHT22;22898;52.102;5.776;2023-06-22T05:11:50;25.90;91.70
36990;DHT22;22898;52.102;5.776;2023-06-22T05:14:16;25.90;92.10
36990;DHT22;22898;52.102;5.776;2023-06-22T05:16:42;26.00;92.10
36990;DHT22;22898;52.102;5.776;2023-06-22T05:19:08;26.00;92.50
36990;DHT22;22898;52.102;5.776;2023-06-22T05:21:34;26.00;92.70
36990;DHT22;22898;52.102;5.776;2023-06-22T05:23:59;26.00;92.70
36990;DHT22;22898;52.102;5.776;2023-06-22T05:26:27;26.00;93.10
36990;DHT22;22898;52.102;5.776;2023-06-22T05:28:53;26.20;93.10
36990;DHT22;22898;52.102;5.776;2023-06-22T05:31:19;26.30;93.10
36990;DHT22;22898;52.102;5.776;2023-06-22T05:33:45;26.30;93.20
36990;DHT22;22898;52.102;5.776;2023-06-22T05:36:12;26.40;93.10
36990;DHT22;22898;52.102;5.776;2023-06-22T05:38:38;26.50;93.10
36990;DHT22;22898;52.102;5.776;2023-06-22T05:41:04;26.70;93.20
36990;DHT22;22898;52.102;5.776;2023-06-22T05:43:30;26.90;93.00
36990;DHT22;22898;52.102;5.776;2023-06-22T05:45:56;27.10;92.60
36990;DHT22;22898;52.102;5.776;2023-06-22T05:48:22;27.20;92.60
36990;DHT22;22898;52.102;5.776;2023-06-22T05:50:48;27.40;92.20
36990;DHT22;22898;52.102;5.776;2023-06-22T05:53:13;27.60;92.00
36990;DHT22;22898;52.102;5.776;2023-06-22T05:55:39;27.70;91.90
36990;DHT22;22898;52.102;5.776;2023-06-22T05:58:04;27.90;91.60
36990;DHT22;22898;52.102;5.776;2023-06-22T06:00:30;28.00;91.50
36990;DHT22;22898;52.102;5.776;2023-06-22T06:02:56;28.10;91.20
36990;DHT22;22898;52.102;5.776;2023-06-22T06:05:22;28.10;90.80
36990;DHT22;22898;52.102;5.776;2023-06-22T06:07:49;27.90;90.80
36990;DHT22;22898;52.102;5.776;2023-06-22T06:10:15;27.70;90.80
36990;DHT22;22898;52.102;5.776;2023-06-22T06:12:40;27.80;90.80
36990;DHT22;22898;52.102;5.776;2023-06-22T06:15:06;27.90;90.90
36990;DHT22;22898;52.102;5.776;2023-06-22T06:17:32;27.80;90.80
36990;DHT22;22898;52.102;5.776;2023-06-22T06:19:59;27.90;90.60
36990;DHT22;22898;52.102;5.776;2023-06-22T06:22:25;28.00;90.60
36990;DHT22;22898;52.102;5.776;2023-06-22T06:24:50;28.20;89.80
36990;DHT22;22898;52.102;5.776;2023-06-22T06:27:16;28.10;89.70
36990;DHT22;22898;52.102;5.776;2023-06-22T06:29:44;27.90;90.30
36990;DHT22;22898;52.102;5.776;2023-06-22T06:32:14;27.80;90.60
36990;DHT22;22898;52.102;5.776;2023-06-22T06:34:39;27.50;90.30
36990;DHT22;22898;52.102;5.776;2023-06-22T06:37:06;27.50;90.50
36990;DHT22;22898;52.102;5.776;2023-06-22T06:39:31;27.80;90.50
36990;DHT22;22898;52.102;5.776;2023-06-22T06:41:57;27.80;90.20
36990;DHT22;22898;52.102;5.776;2023-06-22T06:44:22;27.80;90.50
36990;DHT22;22898;52.102;5.776;2023-06-22T06:46:48;28.10;90.10
36990;DHT22;22898;52.102;5.776;2023-06-22T06:49:13;28.20;89.10
36990;DHT22;22898;52.102;5.776;2023-06-22T06:51:39;28.40;88.00
36990;DHT22;22898;52.102;5.776;2023-06-22T06:54:04;28.40;87.40
36990;DHT22;22898;52.102;5.776;2023-06-22T06:56:30;28.50;87.90
36990;DHT22;22898;52.102;5.776;2023-06-22T06:58:55;28.60;87.30
36990;DHT22;22898;52.102;5.776;2023-06-22T07:01:21;28.40;88.40
36990;DHT22;22898;52.102;5.776;2023-06-22T07:03:46;28.40;88.30
36990;DHT22;22898;52.102;5.776;2023-06-22T07:06:13;28.40;88.00
36990;DHT22;22898;52.102;5.776;2023-06-22T07:08:38;28.70;87.70
36990;DHT22;22898;52.102;5.776;2023-06-22T07:11:05;29.20;86.60
36990;DHT22;22898;52.102;5.776;2023-06-22T07:13:31;29.20;85.30
36990;DHT22;22898;52.102;5.776;2023-06-22T07:15:56;29.00;85.60
36990;DHT22;22898;52.102;5.776;2023-06-22T07:18:22;28.80;86.60
36990;DHT22;22898;52.102;5.776;2023-06-22T07:20:47;28.60;86.60
36990;DHT22;22898;52.102;5.776;2023-06-22T07:23:13;28.70;86.20
36990;DHT22;22898;52.102;5.776;2023-06-22T07:25:38;28.90;86.40
36990;DHT22;22898;52.102;5.776;2023-06-22T07:28:06;29.20;85.40
36990;DHT22;22898;52.102;5.776;2023-06-22T07:30:33;29.10;85.80
36990;DHT22;22898;52.102;5.776;2023-06-22T07:32:59;29.10;85.70
36990;DHT22;22898;52.102;5.776;2023-06-22T07:35:30;29.10;86.30
36990;DHT22;22898;52.102;5.776;2023-06-22T07:37:56;29.30;86.00
36990;DHT22;22898;52.102;5.776;2023-06-22T07:40:21;29.50;85.70
36990;DHT22;22898;52.102;5.776;2023-06-22T07:42:47;29.60;84.10
36990;DHT22;22898;52.102;5.776;2023-06-22T07:45:17;29.70;84.00
36990;DHT22;22898;52.102;5.776;2023-06-22T07:47:42;29.80;83.20
36990;DHT22;22898;52.102;5.776;2023-06-22T07:50:09;29.70;84.00
36990;DHT22;22898;52.102;5.776;2023-06-22T07:52:34;29.50;83.70
36990;DHT22;22898;52.102;5.776;2023-06-22T07:55:00;29.60;84.00
36990;DHT22;22898;52.102;5.776;2023-06-22T07:57:26;29.80;83.20
36990;DHT22;22898;52.102;5.776;2023-06-22T07:59:58;30.00;82.70
36990;DHT22;22898;52.102;5.776;2023-06-22T08:02:24;30.00;82.80
36990;DHT22;22898;52.102;5.776;2023-06-22T08:04:49;29.80;82.60
36990;DHT22;22898;52.102;5.776;2023-06-22T08:07:15;29.90;83.20
36990;DHT22;22898;52.102;5.776;2023-06-22T08:09:46;30.10;82.90
36990;DHT22;22898;52.102;5.776;2023-06-22T08:12:13;30.20;82.30
36990;DHT22;22898;52.102;5.776;2023-06-22T08:14:39;30.10;81.80
36990;DHT22;22898;52.102;5.776;2023-06-22T08:17:05;29.90;81.10
36990;DHT22;22898;52.102;5.776;2023-06-22T08:19:31;29.70;81.70
36990;DHT22;22898;52.102;5.776;2023-06-22T08:21:56;29.70;81.80
36990;DHT22;22898;52.102;5.776;2023-06-22T08:24:23;29.70;82.40
36990;DHT22;22898;52.102;5.776;2023-06-22T08:26:51;29.60;82.80
36990;DHT22;22898;52.102;5.776;2023-06-22T08:29:17;29.60;82.00
36990;DHT22;22898;52.102;5.776;2023-06-22T08:31:42;29.60;82.50
36990;DHT22;22898;52.102;5.776;2023-06-22T08:34:08;29.80;82.90
36990;DHT22;22898;52.102;5.776;2023-06-22T08:36:34;30.00;82.40
36990;DHT22;22898;52.102;5.776;2023-06-22T08:39:03;30.20;81.30
36990;DHT22;22898;52.102;5.776;2023-06-22T08:41:29;30.20;79.70
36990;DHT22;22898;52.102;5.776;2023-06-22T08:43:55;30.40;79.40
36990;DHT22;22898;52.102;5.776;2023-06-22T08:46:21;30.40;80.90
36990;DHT22;22898;52.102;5.776;2023-06-22T08:48:49;30.70;80.70
36990;DHT22;22898;52.102;5.776;2023-06-22T08:51:16;30.60;79.20
36990;DHT22;22898;52.102;5.776;2023-06-22T08:53:42;30.50;79.20
36990;DHT22;22898;52.102;5.776;2023-06-22T08:56:08;30.50;78.80
36990;DHT22;22898;52.102;5.776;2023-06-22T08:58:33;30.50;77.50
36990;DHT22;22898;52.102;5.776;2023-06-22T09:00:59;30.70;78.10
36990;DHT22;22898;52.102;5.776;2023-06-22T09:03:26;31.20;77.90
36990;DHT22;22898;52.102;5.776;2023-06-22T09:05:52;31.40;76.20
36990;DHT22;22898;52.102;5.776;2023-06-22T09:08:17;31.60;76.60
36990;DHT22;22898;52.102;5.776;2023-06-22T09:10:43;31.70;75.70
36990;DHT22;22898;52.102;5.776;2023-06-22T09:13:09;31.30;75.70
36990;DHT22;22898;52.102;5.776;2023-06-22T09:15:34;31.40;75.10
36990;DHT22;22898;52.102;5.776;2023-06-22T09:18:00;31.40;73.80
36990;DHT22;22898;52.102;5.776;2023-06-22T09:20:26;31.50;73.50
36990;DHT22;22898;52.102;5.776;2023-06-22T09:22:51;31.60;73.00
36990;DHT22;22898;52.102;5.776;2023-06-22T09:25:17;31.30;73.80
36990;DHT22;22898;52.102;5.776;2023-06-22T09:27:42;31.20;73.60
36990;DHT22;22898;52.102;5.776;2023-06-22T09:30:08;31.00;73.50
36990;DHT22;22898;52.102;5.776;2023-06-22T09:32:34;31.00;72.50
36990;DHT22;22898;52.102;5.776;2023-06-22T09:35:03;31.30;72.50
36990;DHT22;22898;52.102;5.776;2023-06-22T09:37:30;31.40;71.60
36990;DHT22;22898;52.102;5.776;2023-06-22T09:39:56;31.60;71.60
36990;DHT22;22898;52.102;5.776;2023-06-22T09:42:22;31.70;72.20
36990;DHT22;22898;52.102;5.776;2023-06-22T09:44:47;31.80;71.60
36990;DHT22;22898;52.102;5.776;2023-06-22T09:47:13;31.70;71.60
36990;DHT22;22898;52.102;5.776;2023-06-22T09:49:38;31.70;71.70
36990;DHT22;22898;52.102;5.776;2023-06-22T09:52:05;31.90;70.40
36990;DHT22;22898;52.102;5.776;2023-06-22T09:54:30;31.80;71.30
36990;DHT22;22898;52.102;5.776;2023-06-22T09:56:56;31.80;72.40
36990;DHT22;22898;52.102;5.776;2023-06-22T09:59:22;31.90;73.10
36990;DHT22;22898;52.102;5.776;2023-06-22T10:01:47;32.00;73.40
36990;DHT22;22898;52.102;5.776;2023-06-22T10:04:13;32.40;71.90
36990;DHT22;22898;52.102;5.776;2023-06-22T10:06:38;32.60;71.60
36990;DHT22;22898;52.102;5.776;2023-06-22T10:09:06;32.50;71.00
36990;DHT22;22898;52.102;5.776;2023-06-22T10:11:32;32.60;70.70
36990;DHT22;22898;52.102;5.776;2023-06-22T10:14:00;32.90;70.10
36990;DHT22;22898;52.102;5.776;2023-06-22T10:16:31;33.00;69.50
36990;DHT22;22898;52.102;5.776;2023-06-22T10:18:57;32.60;70.10
36990;DHT22;22898;52.102;5.776;2023-06-22T10:21:22;32.30;70.90
36990;DHT22;22898;52.102;5.776;2023-06-22T10:23:48;32.00;70.70
36990;DHT22;22898;52.102;5.776;2023-06-22T10:26:13;31.70;71.60
36990;DHT22;22898;52.102;5.776;2023-06-22T10:28:39;31.70;72.60
36990;DHT22;22898;52.102;5.776;2023-06-22T10:31:04;31.40;72.50
36990;DHT22;22898;52.102;5.776;2023-06-22T10:33:30;31.30;73.00
36990;DHT22;22898;52.102;5.776;2023-06-22T10:35:55;31.50;73.40
36990;DHT22;22898;52.102;5.776;2023-06-22T10:38:21;31.60;73.40
36990;DHT22;22898;52.102;5.776;2023-06-22T10:40:46;31.60;72.70
36990;DHT22;22898;52.102;5.776;2023-06-22T10:43:12;31.50;73.10
36990;DHT22;22898;52.102;5.776;2023-06-22T10:45:38;31.70;73.60
36990;DHT22;22898;52.102;5.776;2023-06-22T10:48:04;31.70;73.40
36990;DHT22;22898;52.102;5.776;2023-06-22T10:50:29;31.80;73.50
36990;DHT22;22898;52.102;5.776;2023-06-22T10:52:55;32.00;73.00
36990;DHT22;22898;52.102;5.776;2023-06-22T10:55:21;31.90;74.30
36990;DHT22;22898;52.102;5.776;2023-06-22T10:57:46;31.50;74.80
36990;DHT22;22898;52.102;5.776;2023-06-22T11:00:13;31.20;76.40
36990;DHT22;22898;52.102;5.776;2023-06-22T11:02:39;31.20;76.60
36990;DHT22;22898;52.102;5.776;2023-06-22T11:05:04;31.00;76.40
36990;DHT22;22898;52.102;5.776;2023-06-22T11:07:30;31.20;76.80
36990;DHT22;22898;52.102;5.776;2023-06-22T11:09:56;31.50;76.20
36990;DHT22;22898;52.102;5.776;2023-06-22T11:12:22;31.70;75.10
36990;DHT22;22898;52.102;5.776;2023-06-22T11:14:47;31.90;75.10
36990;DHT22;22898;52.102;5.776;2023-06-22T11:17:15;32.00;75.80
36990;DHT22;22898;52.102;5.776;2023-06-22T11:19:41;32.10;74.70
36990;DHT22;22898;52.102;5.776;2023-06-22T11:22:06;32.20;75.50
36990;DHT22;22898;52.102;5.776;2023-06-22T11:24:32;32.40;75.30
36990;DHT22;22898;52.102;5.776;2023-06-22T11:26:58;32.60;74.70
36990;DHT22;22898;52.102;5.776;2023-06-22T11:29:23;32.40;74.70
36990;DHT22;22898;52.102;5.776;2023-06-22T11:31:49;32.00;75.90
36990;DHT22;22898;52.102;5.776;2023-06-22T11:34:14;31.80;76.90
36990;DHT22;22898;52.102;5.776;2023-06-22T11:36:41;31.80;78.00
36990;DHT22;22898;52.102;5.776;2023-06-22T11:39:08;31.60;78.10
36990;DHT22;22898;52.102;5.776;2023-06-22T11:41:35;31.60;77.80
36990;DHT22;22898;52.102;5.776;2023-06-22T11:44:00;31.30;78.20
36990;DHT22;22898;52.102;5.776;2023-06-22T11:46:26;31.00;78.90
36990;DHT22;22898;52.102;5.776;2023-06-22T11:48:51;30.90;78.60
36990;DHT22;22898;52.102;5.776;2023-06-22T11:51:17;31.10;79.10
36990;DHT22;22898;52.102;5.776;2023-06-22T11:53:42;31.40;78.70
36990;DHT22;22898;52.102;5.776;2023-06-22T11:56:08;31.30;78.80
36990;DHT22;22898;52.102;5.776;2023-06-22T11:58:34;31.10;79.40
36990;DHT22;22898;52.102;5.776;2023-06-22T12:00:59;31.00;78.40
36990;DHT22;22898;52.102;5.776;2023-06-22T12:03:25;31.00;78.80
36990;DHT22;22898;52.102;5.776;2023-06-22T12:05:51;31.00;80.20
36990;DHT22;22898;52.102;5.776;2023-06-22T12:08:17;31.10;78.70
36990;DHT22;22898;52.102;5.776;2023-06-22T12:10:43;31.30;78.50
36990;DHT22;22898;52.102;5.776;2023-06-22T12:13:09;31.30;77.80
36990;DHT22;22898;52.102;5.776;2023-06-22T12:15:35;31.50;77.70
36990;DHT22;22898;52.102;5.776;2023-06-22T12:18:00;31.50;75.30
36990;DHT22;22898;52.102;5.776;2023-06-22T12:20:26;31.40;75.40
36990;DHT22;22898;52.102;5.776;2023-06-22T12:22:52;31.50;76.60
36990;DHT22;22898;52.102;5.776;2023-06-22T12:25:19;31.60;76.00
36990;DHT22;22898;52.102;5.776;2023-06-22T12:27:44;31.50;75.70
36990;DHT22;22898;52.102;5.776;2023-06-22T12:30:10;31.30;75.70
36990;DHT22;22898;52.102;5.776;2023-06-22T12:32:36;31.50;77.30
36990;DHT22;22898;52.102;5.776;2023-06-22T12:35:01;31.70;76.30
36990;DHT22;22898;52.102;5.776;2023-06-22T12:37:27;31.60;77.20
36990;DHT22;22898;52.102;5.776;2023-06-22T12:39:55;31.80;77.40
36990;DHT22;22898;52.102;5.776;2023-06-22T12:42:20;31.60;76.80
36990;DHT22;22898;52.102;5.776;2023-06-22T12:44:46;31.40;77.50
36990;DHT22;22898;52.102;5.776;2023-06-22T12:47:11;31.30;80.40
36990;DHT22;22898;52.102;5.776;2023-06-22T12:49:38;31.10;80.50
36990;DHT22;22898;52.102;5.776;2023-06-22T12:52:09;31.20;82.60
36990;DHT22;22898;52.102;5.776;2023-06-22T12:54:35;31.20;82.50
36990;DHT22;22898;52.102;5.776;2023-06-22T12:57:01;31.10;84.70
36990;DHT22;22898;52.102;5.776;2023-06-22T12:59:27;31.30;85.90
36990;DHT22;22898;52.102;5.776;2023-06-22T13:01:52;31.30;86.40
36990;DHT22;22898;52.102;5.776;2023-06-22T13:04:18;31.50;87.10
36990;DHT22;22898;52.102;5.776;2023-06-22T13:06:45;31.50;87.20
36990;DHT22;22898;52.102;5.776;2023-06-22T13:09:13;31.60;88.10
36990;DHT22;22898;52.102;5.776;2023-06-22T13:11:39;31.60;87.80
36990;DHT22;22898;52.102;5.776;2023-06-22T13:14:04;31.50;88.20
36990;DHT22;22898;52.102;5.776;2023-06-22T13:16:30;31.60;88.00
36990;DHT22;22898;52.102;5.776;2023-06-22T13:18:55;31.60;86.80
36990;DHT22;22898;52.102;5.776;2023-06-22T13:21:21;31.40;87.40
36990;DHT22;22898;52.102;5.776;2023-06-22T13:23:47;31.30;88.80
36990;DHT22;22898;52.102;5.776;2023-06-22T13:26:12;31.30;89.80
36990;DHT22;22898;52.102;5.776;2023-06-22T13:28:38;31.30;90.30
36990;DHT22;22898;52.102;5.776;2023-06-22T13:31:04;31.30;90.80
36990;DHT22;22898;52.102;5.776;2023-06-22T13:33:29;31.40;90.90
36990;DHT22;22898;52.102;5.776;2023-06-22T13:35:55;31.40;90.70
36990;DHT22;22898;52.102;5.776;2023-06-22T13:38:20;31.50;91.10
36990;DHT22;22898;52.102;5.776;2023-06-22T13:40:47;31.30;91.20
36990;DHT22;22898;52.102;5.776;2023-06-22T13:43:13;31.20;91.70
36990;DHT22;22898;52.102;5.776;2023-06-22T13:45:40;31.10;92.20
36990;DHT22;22898;52.102;5.776;2023-06-22T13:48:06;31.10;91.30
36990;DHT22;22898;52.102;5.776;2023-06-22T13:50:31;31.10;91.30
36990;DHT22;22898;52.102;5.776;2023-06-22T13:52:57;31.10;91.80
36990;DHT22;22898;52.102;5.776;2023-06-22T13:55:23;31.10;92.10
36990;DHT22;22898;52.102;5.776;2023-06-22T13:57:48;31.00;92.30
36990;DHT22;22898;52.102;5.776;2023-06-22T14:00:14;31.00;92.30
36990;DHT22;22898;52.102;5.776;2023-06-22T14:02:40;31.10;91.90
36990;DHT22;22898;52.102;5.776;2023-06-22T14:05:07;31.10;92.00
36990;DHT22;22898;52.102;5.776;2023-06-22T14:07:33;31.00;92.30
36990;DHT22;22898;52.102;5.776;2023-06-22T14:09:59;31.00;92.50
36990;DHT22;22898;52.102;5.776;2023-06-22T14:12:25;30.90;92.50
36990;DHT22;22898;52.102;5.776;2023-06-22T14:14:50;30.80;92.90
36990;DHT22;22898;52.102;5.776;2023-06-22T14:17:16;30.60;93.30
36990;DHT22;22898;52.102;5.776;2023-06-22T14:19:42;30.60;93.10
36990;DHT22;22898;52.102;5.776;2023-06-22T14:22:07;30.60;93.20
36990;DHT22;22898;52.102;5.776;2023-06-22T14:24:33;30.50;92.10
36990;DHT22;22898;52.102;5.776;2023-06-22T14:27:00;30.30;92.30
36990;DHT22;22898;52.102;5.776;2023-06-22T14:29:28;30.20;91.80
36990;DHT22;22898;52.102;5.776;2023-06-22T14:31:53;29.90;92.00
36990;DHT22;22898;52.102;5.776;2023-06-22T14:34:19;29.60;92.90
36990;DHT22;22898;52.102;5.776;2023-06-22T14:36:44;29.50;93.60
36990;DHT22;22898;52.102;5.776;2023-06-22T14:39:10;29.40;93.30
36990;DHT22;22898;52.102;5.776;2023-06-22T14:41:35;29.40;93.70
36990;DHT22;22898;52.102;5.776;2023-06-22T14:44:01;29.40;93.60
36990;DHT22;22898;52.102;5.776;2023-06-22T14:46:27;29.40;93.40
36990;DHT22;22898;52.102;5.776;2023-06-22T14:48:52;29.40;93.70
36990;DHT22;22898;52.102;5.776;2023-06-22T14:51:18;29.40;94.00
36990;DHT22;22898;52.102;5.776;2023-06-22T14:53:44;29.30;93.90
36990;DHT22;22898;52.102;5.776;2023-06-22T14:56:10;28.90;94.30
36990;DHT22;22898;52.102;5.776;2023-06-22T14:58:36;28.70;94.90
36990;DHT22;22898;52.102;5.776;2023-06-22T15:01:04;28.60;95.10
36990;DHT22;22898;52.102;5.776;2023-06-22T15:03:31;28.50;95.80
36990;DHT22;22898;52.102;5.776;2023-06-22T15:05:57;28.20;96.40
36990;DHT22;22898;52.102;5.776;2023-06-22T15:08:24;27.90;97.80
36990;DHT22;22898;52.102;5.776;2023-06-22T15:10:50;28.00;97.90
36990;DHT22;22898;52.102;5.776;2023-06-22T15:13:16;28.20;97.90
36990;DHT22;22898;52.102;5.776;2023-06-22T15:15:43;28.50;97.90
36990;DHT22;22898;52.102;5.776;2023-06-22T15:18:08;28.60;97.90
36990;DHT22;22898;52.102;5.776;2023-06-22T15:20:34;28.70;98.10
36990;DHT22;22898;52.102;5.776;2023-06-22T15:22:59;28.60;98.10
36990;DHT22;22898;52.102;5.776;2023-06-22T15:25:25;28.60;98.10
36990;DHT22;22898;52.102;5.776;2023-06-22T15:27:50;28.40;98.60
36990;DHT22;22898;52.102;5.776;2023-06-22T15:30:16;28.30;98.90
36990;DHT22;22898;52.102;5.776;2023-06-22T15:32:45;28.30;98.80